createdAt,value
2023-11-22T07:10:41.892Z,100102.82
2023-11-22T07:13:08.574Z,100098.39
2023-11-22T07:15:35.076Z,100101.46
2023-11-22T07:18:01.790Z,100109.27
2023-11-22T07:20:28.608Z,100107.50
2023-11-22T07:22:58.075Z,100103.50
2023-11-22T07:25:27.462Z,100104.05
2023-11-22T07:27:54.390Z,100105.48
2023-11-22T07:30:23.540Z,100105.89
2023-11-22T07:32:52.510Z,100111.33
2023-11-22T07:35:20.613Z,100109.30
2023-11-22T07:37:48.534Z,100106.84
2023-11-22T07:40:15.121Z,100107.25
2023-11-22T07:42:43.068Z,100106.15
2023-11-22T07:45:12.383Z,100103.45
2023-11-22T07:47:41.009Z,100102.05
2023-11-22T07:50:11.819Z,100108.95
2023-11-22T07:52:40.752Z,100106.62
2023-11-22T07:55:08.830Z,100108.07
2023-11-22T07:57:35.717Z,100115.05
2023-11-22T08:00:05.692Z,100118.95
2023-11-22T08:02:43.807Z,100121.93
2023-11-22T08:05:10.601Z,100130.51
2023-11-22T08:22:40.801Z,100104.25
2023-11-22T08:25:09.630Z,100100.67
2023-11-22T08:27:37.046Z,100095.90
2023-11-22T08:30:06.383Z,100095.09
2023-11-22T08:32:34.476Z,100095.64
2023-11-22T08:35:02.640Z,100091.29
2023-11-22T08:37:30.627Z,100088.88
2023-11-22T08:39:57.964Z,100082.98
2023-11-22T08:42:25.083Z,100084.95
2023-11-22T08:44:52.600Z,100078.52
2023-11-22T08:47:19.808Z,100082.12
2023-11-22T08:49:49.618Z,100089.29
2023-11-22T08:52:16.991Z,100084.91
2023-11-22T08:54:44.016Z,100083.30
2023-11-22T08:57:11.358Z,100081.73
2023-11-22T08:59:39.665Z,100086.59
2023-11-22T09:02:09.182Z,100078.95
2023-11-22T09:04:36.978Z,100087.38
2023-11-22T09:07:05.042Z,100088.53
2023-11-22T09:09:32.491Z,100094.11
2023-11-22T09:12:00.336Z,100083.85
2023-11-22T09:14:27.717Z,100081.56
2023-11-22T09:16:56.185Z,100078.98
2023-11-22T09:19:24.333Z,100080.95
2023-11-22T09:21:51.999Z,100069.92
2023-11-22T09:24:19.079Z,100073.20
2023-11-22T09:26:46.836Z,100069.77
2023-11-22T09:29:15.796Z,100070.04
2023-11-22T09:31:44.204Z,100071.40
2023-11-22T09:34:12.322Z,100065.59
2023-11-22T09:36:40.087Z,100063.61
2023-11-22T09:39:10.151Z,100068.31
2023-11-22T09:41:37.532Z,100067.97
2023-11-22T09:44:06.598Z,100073.83
2023-11-22T09:46:35.978Z,100074.64
2023-11-22T09:49:03.965Z,100073.77
2023-11-22T09:51:33.681Z,100073.35
2023-11-22T09:54:08.502Z,100071.27
2023-11-22T09:56:38.513Z,100076.29
2023-11-22T09:59:07.449Z,100072.33
2023-11-22T10:01:38.261Z,100071.10
2023-11-22T10:04:08.711Z,100070.17
2023-11-22T10:06:36.935Z,100072.25
2023-11-22T10:09:09.917Z,100067.38
2023-11-22T10:11:40.132Z,100067.67
2023-11-22T10:14:07.344Z,100057.34
2023-11-22T10:16:34.373Z,100055.63
2023-11-22T10:19:01.445Z,100049.40
2023-11-22T10:21:31.526Z,100055.84
2023-11-22T10:24:02.996Z,100057.69
2023-11-22T10:26:30.279Z,100049.56
2023-11-22T10:28:58.180Z,100058.69
2023-11-22T10:31:26.108Z,100064.26
2023-11-22T10:33:55.273Z,100064.79
2023-11-22T10:36:22.652Z,100057.71
2023-11-22T10:38:50.078Z,100059.19
2023-11-22T10:41:17.480Z,100058.67
2023-11-22T10:43:45.721Z,100056.50
2023-11-22T10:46:14.245Z,100061.24
2023-11-22T10:48:41.670Z,100062.57
2023-11-22T10:51:08.714Z,100061.14
2023-11-22T10:53:37.219Z,100042.83
2023-11-22T10:56:16.997Z,100044.25
2023-11-22T10:58:49.105Z,100044.77
2023-11-22T11:01:23.335Z,100043.83
2023-11-22T11:03:58.677Z,100042.30
2023-11-22T11:06:33.016Z,100040.38
2023-11-22T11:09:07.628Z,100044.05
2023-11-22T11:11:35.755Z,100041.55
2023-11-22T11:14:06.890Z,100047.31
2023-11-22T11:16:42.620Z,100041.07
2023-11-22T11:19:11.290Z,100036.27
2023-11-22T11:21:38.444Z,100042.91
2023-11-22T11:24:05.748Z,100049.91
2023-11-22T11:26:39.078Z,100042.65
2023-11-22T11:29:08.665Z,100030.09
2023-11-22T11:31:41.143Z,100032.11
2023-11-22T11:34:09.573Z,100031.75
2023-11-22T11:36:38.896Z,100030.61
2023-11-22T11:39:12.131Z,100040.94
2023-11-22T11:41:40.692Z,100040.71
2023-11-22T11:44:10.497Z,100037.98
2023-11-22T11:46:41.126Z,100030.27
2023-11-22T11:49:11.603Z,100029.19
2023-11-22T11:51:39.535Z,100021.91
2023-11-22T11:54:07.032Z,100025.59
2023-11-22T11:56:37.518Z,100027.69
2023-11-22T11:59:04.679Z,100030.40
2023-11-22T12:01:34.169Z,100031.39
2023-11-22T12:04:02.734Z,100042.73
2023-11-22T12:06:30.218Z,100038.00
2023-11-22T12:08:57.284Z,100042.16
2023-11-22T12:11:24.304Z,100042.61
2023-11-22T12:13:53.543Z,100045.48
2023-11-22T12:16:20.575Z,100041.08
2023-11-22T12:33:52.819Z,100041.30
2023-11-22T12:36:21.542Z,100046.67
2023-11-22T12:38:48.687Z,100043.73
2023-11-22T12:41:16.381Z,100042.39
2023-11-22T12:43:48.938Z,100041.12
2023-11-22T12:46:19.302Z,100041.55
2023-11-22T12:48:46.551Z,100042.86
2023-11-22T12:51:27.815Z,100051.91
2023-11-22T12:53:55.601Z,100062.26
2023-11-22T12:56:22.975Z,100057.13
2023-11-22T12:58:50.389Z,100055.70
2023-11-22T13:01:17.689Z,100061.35
2023-11-22T13:03:45.068Z,100058.46
2023-11-22T13:06:12.581Z,100059.75
2023-11-22T13:08:40.274Z,100057.29
2023-11-22T13:11:08.925Z,100053.75
2023-11-22T13:13:36.556Z,100056.48
2023-11-22T13:18:33.517Z,100057.96
2023-11-22T13:21:00.912Z,100064.19
2023-11-22T13:23:27.975Z,100061.14
2023-11-22T13:25:55.002Z,100064.41
2023-11-22T13:28:22.237Z,100070.45
2023-11-22T13:30:50.311Z,100072.56
2023-11-22T13:33:17.444Z,100069.29
2023-11-22T13:35:45.777Z,100069.10
2023-11-22T13:38:13.085Z,100069.16
2023-11-22T13:40:47.108Z,100066.30
2023-11-22T13:43:14.961Z,100059.59
2023-11-22T13:45:42.915Z,100059.48
2023-11-22T13:48:13.051Z,100056.61
2023-11-22T13:50:40.390Z,100058.58
2023-11-22T13:53:07.483Z,100065.42
2023-11-22T13:55:34.536Z,100063.73
2023-11-22T13:58:01.746Z,100068.13
2023-11-22T14:00:34.311Z,100062.63
2023-11-22T14:03:09.165Z,100064.77
2023-11-22T14:05:38.871Z,100062.27
2023-11-22T14:08:07.743Z,100059.56
2023-11-22T14:10:35.112Z,100062.72
2023-11-22T14:13:04.145Z,100051.95
2023-11-22T14:15:32.052Z,100049.95
2023-11-22T14:17:59.401Z,100039.80
2023-11-22T14:20:26.862Z,100039.73
2023-11-22T14:22:54.282Z,100049.38
2023-11-22T14:25:22.364Z,100055.85
2023-11-22T14:27:54.006Z,100056.57
2023-11-22T14:30:22.560Z,100045.34
2023-11-22T14:32:51.124Z,100050.55
2023-11-22T14:35:18.909Z,100050.80
2023-11-22T14:37:46.062Z,100054.83
2023-11-22T14:40:16.948Z,100049.64
2023-11-22T14:42:45.825Z,100052.39
2023-11-22T14:45:13.858Z,100061.75
2023-11-22T14:47:41.572Z,100067.36
2023-11-22T14:50:12.893Z,100069.16
2023-11-22T14:52:40.917Z,100071.39
2023-11-22T14:55:10.521Z,100064.94
2023-11-22T14:57:38.365Z,100065.95
2023-11-22T15:00:10.820Z,100061.86
2023-11-22T15:02:38.074Z,100065.39
2023-11-22T15:05:12.183Z,100073.08
2023-11-22T15:07:42.678Z,100086.31
2023-11-22T15:10:16.013Z,100087.38
2023-11-22T15:12:43.726Z,100087.27
2023-11-22T15:15:12.284Z,100081.77
2023-11-22T15:17:39.556Z,100079.95
2023-11-22T15:20:10.658Z,100075.05
2023-11-22T15:22:38.370Z,100074.52
2023-11-22T15:25:06.569Z,100068.09
2023-11-22T15:27:33.725Z,100070.52
2023-11-22T15:30:00.834Z,100069.48
2023-11-22T15:32:28.283Z,100066.98
2023-11-22T15:34:55.376Z,100068.30
2023-11-22T15:37:22.317Z,100067.34
2023-11-22T15:39:49.248Z,100066.34
2023-11-22T15:42:17.368Z,100067.98
2023-11-22T15:44:44.500Z,100064.51
2023-11-22T15:47:14.592Z,100060.55
2023-11-22T15:49:42.518Z,100063.16
2023-11-22T15:52:09.708Z,100058.90
2023-11-22T15:54:36.753Z,100055.46
2023-11-22T15:57:04.247Z,100063.20
2023-11-22T15:59:31.384Z,100063.79
2023-11-22T16:01:58.561Z,100063.81
2023-11-22T16:04:25.697Z,100060.50
2023-11-22T16:06:52.802Z,100064.04
2023-11-22T16:09:20.027Z,100064.93
2023-11-22T16:11:47.324Z,100065.35
2023-11-22T16:14:16.356Z,100065.13
2023-11-22T16:16:43.778Z,100068.61
2023-11-22T16:19:11.911Z,100073.77
2023-11-22T16:21:40.719Z,100080.31
2023-11-22T16:24:08.402Z,100083.88
2023-11-22T16:26:35.610Z,100085.63
2023-11-22T16:29:02.730Z,100090.10
2023-11-22T16:31:29.853Z,100091.48
2023-11-22T16:33:58.988Z,100087.05
2023-11-22T16:36:26.546Z,100090.10
2023-11-22T16:38:55.919Z,100092.67
2023-11-22T16:41:25.973Z,100095.02
2023-11-22T16:43:53.569Z,100090.63
2023-11-22T16:46:20.642Z,100093.70
2023-11-22T16:48:47.808Z,100092.89
2023-11-22T16:51:16.921Z,100092.50
2023-11-22T16:53:44.319Z,100090.97
2023-11-22T16:56:11.372Z,100094.66
2023-11-22T16:58:39.630Z,100093.85
2023-11-22T17:01:06.946Z,100090.48
2023-11-22T17:03:34.267Z,100093.04
2023-11-22T17:06:01.648Z,100098.52
2023-11-22T17:08:28.960Z,100105.42
2023-11-22T17:10:56.094Z,100105.80
2023-11-22T17:13:23.161Z,100108.09
2023-11-22T17:15:50.084Z,100100.48
2023-11-22T17:18:17.511Z,100105.08
2023-11-22T17:20:44.824Z,100101.90
2023-11-22T17:23:12.453Z,100100.73
2023-11-22T17:25:39.661Z,100100.95
2023-11-22T17:28:06.824Z,100112.30
2023-11-22T17:30:34.931Z,100115.90
2023-11-22T17:33:02.447Z,100114.11
2023-11-22T17:35:29.734Z,100112.20
2023-11-22T17:37:59.213Z,100110.67
2023-11-22T17:40:26.950Z,100118.33
2023-11-22T17:42:54.296Z,100120.25
2023-11-22T17:45:21.480Z,100114.05
2023-11-22T17:47:48.829Z,100114.77
2023-11-22T17:50:19.174Z,100114.48
2023-11-22T17:52:47.757Z,100109.11
2023-11-22T17:55:15.452Z,100108.77
2023-11-22T17:57:42.777Z,100109.85
2023-11-22T18:00:11.198Z,100108.25
2023-11-22T18:02:41.731Z,100105.98
2023-11-22T18:05:09.136Z,100109.24
2023-11-22T18:07:38.581Z,100103.89
2023-11-22T18:10:09.266Z,100099.92
2023-11-22T18:12:36.451Z,100098.98
2023-11-22T18:15:03.949Z,100098.95
2023-11-22T18:17:31.555Z,100089.85
2023-11-22T18:19:59.106Z,100083.32
2023-11-22T18:22:26.185Z,100087.04
2023-11-22T18:24:53.352Z,100086.45
2023-11-22T18:27:20.335Z,100082.91
2023-11-22T18:29:47.326Z,100081.61
2023-11-22T18:32:14.464Z,100080.09
2023-11-22T18:34:42.128Z,100077.45
2023-11-22T18:37:09.178Z,100078.44
2023-11-22T18:39:36.316Z,100082.51
2023-11-22T18:42:04.486Z,100077.65
2023-11-22T18:44:32.155Z,100074.69
2023-11-22T18:46:59.388Z,100074.17
2023-11-22T18:49:28.301Z,100077.30
2023-11-22T18:51:55.313Z,100080.03
2023-11-22T18:54:22.492Z,100084.03
2023-11-22T18:56:49.754Z,100085.94
2023-11-22T18:59:16.920Z,100078.83
2023-11-22T19:01:44.215Z,100076.83
2023-11-22T19:04:11.340Z,100076.05
2023-11-22T19:06:38.942Z,100066.67
2023-11-22T19:09:11.215Z,100069.71
2023-11-22T19:11:41.158Z,100065.48
2023-11-22T19:14:08.709Z,100063.67
2023-11-22T19:16:35.860Z,100060.15
2023-11-22T19:19:03.635Z,100059.15
2023-11-22T19:21:32.992Z,100053.55
2023-11-22T19:24:02.543Z,100057.00
2023-11-22T19:26:34.492Z,100058.48
2023-11-22T19:29:02.271Z,100059.68
2023-11-22T19:31:30.070Z,100055.59
2023-11-22T19:33:57.658Z,100056.43
2023-11-22T19:36:25.916Z,100057.16
2023-11-22T19:38:55.465Z,100054.02
2023-11-22T19:41:23.114Z,100055.14
2023-11-22T19:43:50.535Z,100053.77
2023-11-22T19:46:17.727Z,100052.15
2023-11-22T19:48:45.231Z,100053.04
2023-11-22T19:51:13.290Z,100060.11
2023-11-22T19:53:40.387Z,100058.77
2023-11-22T19:56:07.841Z,100051.90
2023-11-22T19:58:35.578Z,100051.40
2023-11-22T20:01:02.782Z,100053.03
2023-11-22T20:03:30.086Z,100055.11
2023-11-22T20:05:57.208Z,100055.02
2023-11-22T20:08:24.392Z,100054.64
2023-11-22T20:10:51.491Z,100055.01
2023-11-22T20:13:18.550Z,100059.12
2023-11-22T20:15:45.719Z,100055.94
2023-11-22T20:18:12.893Z,100058.27
2023-11-22T20:20:40.155Z,100057.51
2023-11-22T20:23:07.881Z,100054.77
2023-11-22T20:25:34.971Z,100055.20
2023-11-22T20:28:02.513Z,100051.26
2023-11-22T20:30:29.646Z,100043.98
2023-11-22T20:32:56.929Z,100046.95
2023-11-22T20:35:24.099Z,100047.64
2023-11-22T20:37:51.093Z,100041.21
2023-11-22T20:40:18.073Z,100043.86
2023-11-22T20:42:45.275Z,100040.11
2023-11-22T20:45:12.335Z,100036.48
2023-11-22T20:47:41.484Z,100035.48
2023-11-22T20:50:10.240Z,100043.92
2023-11-22T20:52:37.433Z,100049.89
2023-11-22T20:55:09.776Z,100054.95
2023-11-22T20:57:38.756Z,100048.41
2023-11-22T21:00:12.943Z,100051.83
2023-11-22T21:02:40.866Z,100059.63
2023-11-22T21:05:08.826Z,100060.05
2023-11-22T21:07:36.083Z,100066.00
2023-11-22T21:10:03.475Z,100059.34
2023-11-22T21:12:30.697Z,100060.97
2023-11-22T21:14:58.387Z,100063.54
2023-11-22T21:17:36.723Z,100068.41
2023-11-22T21:20:10.909Z,100069.23
2023-11-22T21:22:39.097Z,100067.26
2023-11-22T21:25:09.845Z,100063.19
2023-11-22T21:27:37.750Z,100063.73
2023-11-22T21:30:06.128Z,100065.64
2023-11-22T21:32:33.814Z,100063.46
2023-11-22T21:35:00.982Z,100059.08
2023-11-22T21:37:28.383Z,100061.66
2023-11-22T21:39:56.378Z,100061.33
2023-11-22T21:42:23.344Z,100053.13
2023-11-22T21:44:50.435Z,100055.44
2023-11-22T21:47:17.709Z,100054.02
2023-11-22T21:49:44.752Z,100055.84
2023-11-22T21:52:11.708Z,100053.06
2023-11-22T21:54:39.354Z,100054.64
2023-11-22T21:57:06.906Z,100053.24
2023-11-22T21:59:35.409Z,100057.14
2023-11-22T22:02:02.914Z,100058.91
2023-11-22T22:04:30.241Z,100059.39
2023-11-22T22:06:57.340Z,100056.80
2023-11-22T22:09:24.529Z,100062.41
2023-11-22T22:11:51.568Z,100058.73
2023-11-22T22:14:18.954Z,100053.96
2023-11-22T22:16:48.010Z,100050.85
2023-11-22T22:19:15.553Z,100038.27
2023-11-22T22:21:42.738Z,100035.31
2023-11-22T22:24:10.072Z,100043.51
2023-11-22T22:26:37.335Z,100047.80
2023-11-22T22:29:05.358Z,100051.08
2023-11-22T22:31:32.404Z,100055.77
2023-11-22T22:33:59.514Z,100059.86
2023-11-22T22:36:26.546Z,100061.12
2023-11-22T22:38:53.609Z,100060.33
2023-11-22T22:41:21.157Z,100055.44
2023-11-22T22:43:48.528Z,100056.28
2023-11-22T22:46:16.054Z,100044.54
2023-11-22T22:48:46.347Z,100044.11
2023-11-22T22:51:14.633Z,100047.27
2023-11-22T22:53:42.574Z,100050.70
2023-11-22T22:56:09.602Z,100047.33
2023-11-22T22:58:37.888Z,100041.95
2023-11-22T23:01:05.635Z,100055.66
2023-11-22T23:03:33.215Z,100052.78
2023-11-22T23:06:00.440Z,100051.79
2023-11-22T23:08:28.726Z,100051.58
2023-11-22T23:10:55.929Z,100052.08
2023-11-22T23:13:23.099Z,100045.92
2023-11-22T23:15:50.085Z,100048.95
2023-11-22T23:18:17.153Z,100039.95
2023-11-22T23:20:49.733Z,100044.45
2023-11-22T23:23:18.579Z,100050.40
2023-11-22T23:25:45.874Z,100026.66
2023-11-22T23:28:13.174Z,100044.66
2023-11-22T23:30:40.394Z,100048.86
2023-11-22T23:33:08.589Z,100052.94
2023-11-22T23:35:35.931Z,100055.42
2023-11-22T23:38:03.316Z,100058.17
2023-11-22T23:40:30.738Z,100061.58
2023-11-22T23:42:59.169Z,100053.89
2023-11-22T23:45:26.772Z,100071.11
2023-11-22T23:47:54.297Z,100069.04
2023-11-22T23:50:21.524Z,100071.03
2023-11-22T23:52:50.256Z,100069.65
2023-11-22T23:55:17.694Z,100065.86
2023-11-22T23:57:45.152Z,100062.77
